TimeMDT,TemperatureF,Dew PointF,Humidity,Sea Level PressureIn,VisibilityMPH,Wind Direction,Wind SpeedMPH,Gust SpeedMPH,PrecipitationIn,Events,Conditions,WindDirDegrees,DateUTC
12:53 AM,41.0,30.0,65,30.19,10.0,NNE,5.8,-,N/A,,Overcast,20,2013-10-16 06:53:00
1:53 AM,39.9,30.0,68,30.19,10.0,Calm,Calm,-,N/A,,Overcast,0,2013-10-16 07:53:00
2:32 AM,39.2,30.2,70,30.22,10.0,Calm,Calm,-,N/A,,Overcast,0,2013-10-16 08:32:00
2:53 AM,39.9,30.0,68,30.18,10.0,Calm,Calm,-,N/A,,Overcast,0,2013-10-16 08:53:00
3:44 AM,39.2,26.6,61,30.20,10.0,ESE,5.8,-,N/A,,Mostly Cloudy,120,2013-10-16 09:44:00
3:53 AM,39.9,27.0,60,30.16,10.0,ESE,5.8,-,N/A,,Overcast,120,2013-10-16 09:53:00
4:53 AM,39.0,27.0,62,30.15,10.0,SE,5.8,-,N/A,,Overcast,140,2013-10-16 10:53:00
5:53 AM,37.9,28.9,70,30.14,10.0,SE,6.9,-,N/A,,Mostly Cloudy,140,2013-10-16 11:53:00
6:53 AM,37.0,28.9,73,30.15,10.0,East,3.5,-,N/A,,Mostly Cloudy,100,2013-10-16 12:53:00
7:53 AM,37.0,30.0,76,30.14,10.0,North,-9999.0,-,N/A,,Overcast,0,2013-10-16 13:53:00
8:53 AM,39.0,30.9,73,30.13,10.0,East,3.5,-,N/A,,Overcast,100,2013-10-16 14:53:00
9:53 AM,41.0,30.0,65,30.13,10.0,ENE,4.6,-,N/A,,Overcast,70,2013-10-16 15:53:00
10:53 AM,44.1,30.0,58,30.12,10.0,Variable,3.5,-,N/A,,Mostly Cloudy,0,2013-10-16 16:53:00
11:53 AM,48.0,30.9,52,30.08,10.0,Calm,Calm,-,N/A,,Overcast,0,2013-10-16 17:53:00
12:53 PM,50.0,30.9,48,30.04,10.0,SSW,4.6,-,N/A,,Partly Cloudy,210,2013-10-16 18:53:00
1:53 PM,52.0,30.0,43,30.01,10.0,Calm,Calm,-,N/A,,Clear,0,2013-10-16 19:53:00
2:53 PM,54.0,28.9,38,29.98,10.0,Variable,5.8,-,N/A,,Clear,0,2013-10-16 20:53:00
3:53 PM,54.0,28.9,38,29.98,10.0,NW,8.1,-,N/A,,Clear,320,2013-10-16 21:53:00
4:53 PM,54.0,27.0,35,29.97,10.0,WSW,3.5,-,N/A,,Clear,250,2013-10-16 22:53:00
5:53 PM,53.1,26.1,35,29.97,10.0,Calm,Calm,-,N/A,,Clear,0,2013-10-16 23:53:00
6:53 PM,51.1,26.1,38,30.00,10.0,Calm,Calm,-,N/A,,Clear,0,2013-10-17 00:53:00
7:53 PM,48.0,26.1,42,30.00,10.0,Calm,Calm,-,N/A,,Clear,0,2013-10-17 01:53:00
8:53 PM,46.0,26.1,46,30.01,10.0,Calm,Calm,-,N/A,,Clear,0,2013-10-17 02:53:00
9:53 PM,42.1,25.0,51,30.03,10.0,North,3.5,-,N/A,,Clear,350,2013-10-17 03:53:00
10:53 PM,39.0,26.1,60,30.04,10.0,West,4.6,-,N/A,,Clear,260,2013-10-17 04:53:00
11:53 PM,37.9,25.0,60,30.02,10.0,West,8.1,-,N/A,,Clear,280,2013-10-17 05:53:00